createdAt,value
2019-05-07T00:02:02.962Z,6.20
2019-05-07T00:04:33.213Z,6.20
2019-05-07T00:07:02.394Z,6.10
2019-05-07T00:09:32.324Z,6.10
2019-05-07T00:12:04.684Z,6.00
2019-05-07T00:14:31.999Z,5.90
2019-05-07T00:17:02.253Z,5.90
2019-05-07T00:19:32.451Z,5.90
2019-05-07T00:22:02.413Z,5.90
2019-05-07T00:24:32.969Z,6.00
2019-05-07T00:27:02.856Z,5.90
2019-05-07T00:29:32.170Z,5.90
2019-05-07T00:32:02.739Z,5.80
2019-05-07T00:34:32.902Z,5.80
2019-05-07T00:37:08.803Z,5.90
2019-05-07T00:39:52.889Z,5.90
2019-05-07T00:42:23.020Z,5.90
2019-05-07T00:45:15.933Z,5.80
2019-05-07T00:47:33.011Z,5.80
2019-05-07T00:50:03.380Z,5.70
2019-05-07T00:52:33.516Z,5.60
2019-05-07T00:55:02.912Z,5.60
2019-05-07T00:57:32.390Z,5.60
2019-05-07T01:00:02.202Z,5.60
2019-05-07T01:02:32.373Z,5.50
2019-05-07T01:05:03.044Z,5.50
2019-05-07T01:07:32.442Z,5.50
2019-05-07T01:10:02.226Z,5.40
2019-05-07T01:12:32.865Z,5.30
2019-05-07T01:15:02.855Z,5.40
2019-05-07T01:17:33.334Z,5.30
2019-05-07T01:20:02.909Z,5.30
2019-05-07T01:22:33.071Z,5.20
2019-05-07T01:25:02.358Z,5.20
2019-05-07T01:27:32.170Z,5.20
2019-05-07T01:30:02.538Z,5.30
2019-05-07T01:32:38.511Z,5.30
2019-05-07T01:35:17.806Z,5.20
2019-05-07T01:37:46.204Z,5.20
2019-05-07T01:40:14.695Z,5.20
2019-05-07T01:42:43.082Z,5.00
2019-05-07T01:45:12.983Z,4.90
2019-05-07T01:47:42.471Z,4.90
2019-05-07T01:50:13.231Z,5.00
2019-05-07T01:52:42.727Z,5.00
2019-05-07T01:55:12.972Z,5.00
2019-05-07T01:57:42.109Z,5.10
2019-05-07T02:00:12.907Z,5.20
2019-05-07T02:02:42.677Z,5.20
2019-05-07T02:05:12.803Z,5.20
2019-05-07T02:07:43.019Z,5.20
2019-05-07T02:10:16.395Z,5.30
2019-05-07T02:12:44.802Z,5.20
2019-05-07T02:15:14.047Z,5.30
2019-05-07T02:17:42.982Z,5.30
2019-05-07T02:20:13.062Z,5.20
2019-05-07T02:22:42.726Z,5.20
2019-05-07T02:25:12.606Z,5.20
2019-05-07T02:27:42.068Z,5.30
2019-05-07T02:30:14.469Z,5.30
2019-05-07T02:32:43.227Z,5.20
2019-05-07T02:35:13.599Z,5.30
2019-05-07T02:37:51.170Z,5.30
2019-05-07T02:40:22.882Z,5.30
2019-05-07T02:42:54.065Z,5.20
2019-05-07T02:45:28.794Z,5.20
2019-05-07T02:47:57.244Z,5.20
2019-05-07T02:50:36.316Z,5.10
2019-05-07T02:53:08.838Z,5.10
2019-05-07T02:55:44.693Z,4.90
2019-05-07T02:58:13.734Z,4.90
2019-05-07T03:00:43.473Z,4.80
2019-05-07T03:03:13.741Z,4.80
2019-05-07T03:05:43.110Z,4.70
2019-05-07T03:08:13.651Z,4.60
2019-05-07T03:10:43.724Z,4.60
2019-05-07T03:13:13.796Z,4.50
2019-05-07T03:15:43.636Z,4.40
2019-05-07T03:18:13.892Z,4.30
2019-05-07T03:20:47.255Z,4.30
2019-05-07T03:23:17.303Z,4.30
2019-05-07T03:25:49.995Z,4.20
2019-05-07T03:28:19.613Z,4.20
2019-05-07T03:30:58.685Z,4.20
2019-05-07T03:33:28.753Z,4.10
2019-05-07T03:35:58.858Z,4.10
2019-05-07T03:38:27.278Z,4.10
2019-05-07T03:40:55.788Z,4.10
2019-05-07T03:43:25.875Z,4.00
2019-05-07T03:45:56.013Z,4.00
2019-05-07T03:48:26.346Z,3.90
2019-05-07T03:50:54.788Z,3.80
2019-05-07T03:53:23.574Z,3.80
2019-05-07T03:55:53.858Z,3.80
2019-05-07T03:58:23.550Z,3.90
2019-05-07T04:00:53.676Z,3.80
2019-05-07T04:03:24.384Z,3.80
2019-05-07T04:05:53.339Z,3.80
2019-05-07T04:08:23.593Z,3.70
2019-05-07T04:10:53.797Z,3.80
2019-05-07T04:13:24.006Z,3.80
2019-05-07T04:15:52.720Z,3.90
2019-05-07T04:18:23.654Z,4.00
2019-05-07T04:20:54.001Z,4.00
2019-05-07T04:23:23.355Z,4.10
2019-05-07T04:25:56.239Z,4.20
2019-05-07T04:28:43.592Z,4.20
2019-05-07T04:31:14.110Z,4.30
2019-05-07T04:33:43.966Z,4.40
2019-05-07T04:36:14.391Z,4.40
2019-05-07T04:38:43.928Z,4.40
2019-05-07T04:41:13.810Z,4.60
2019-05-07T04:43:43.508Z,4.70
2019-05-07T04:46:14.489Z,4.70
2019-05-07T04:48:43.934Z,4.80
2019-05-07T04:51:14.245Z,5.00
2019-05-07T04:53:43.053Z,5.20
2019-05-07T04:56:14.081Z,5.40
2019-05-07T04:58:43.388Z,5.60
2019-05-07T05:01:14.076Z,5.80
2019-05-07T05:03:43.683Z,5.90
2019-05-07T05:06:13.677Z,6.00
2019-05-07T05:08:43.512Z,6.00
2019-05-07T05:11:12.807Z,6.10
2019-05-07T05:13:44.380Z,6.10
2019-05-07T05:16:26.898Z,6.20
2019-05-07T05:18:56.443Z,6.30
2019-05-07T05:21:44.647Z,6.40
2019-05-07T05:24:17.702Z,6.50
2019-05-07T05:26:46.119Z,6.60
2019-05-07T05:29:14.606Z,6.70
2019-05-07T05:31:43.005Z,6.80
2019-05-07T05:34:13.027Z,7.00
2019-05-07T05:36:42.567Z,7.10
2019-05-07T05:39:13.190Z,7.10
2019-05-07T05:41:43.735Z,7.10
2019-05-07T05:44:25.949Z,7.10
2019-05-07T05:46:54.379Z,7.10
2019-05-07T05:49:23.059Z,7.10
2019-05-07T05:51:55.974Z,7.00
2019-05-07T05:54:26.039Z,7.00
2019-05-07T05:56:56.356Z,7.00
2019-05-07T05:59:44.975Z,7.00
2019-05-07T06:02:12.808Z,6.90
2019-05-07T06:04:59.085Z,6.90
2019-05-07T06:07:32.071Z,7.00
2019-05-07T06:10:07.905Z,7.10
2019-05-07T06:12:42.868Z,7.30
2019-05-07T06:15:16.249Z,7.60
2019-05-07T06:17:46.286Z,7.90
2019-05-07T06:20:22.951Z,8.10
2019-05-07T06:23:08.972Z,8.20
2019-05-07T06:25:37.659Z,8.40
2019-05-07T06:28:06.050Z,8.60
2019-05-07T06:30:34.459Z,8.80
2019-05-07T06:33:03.165Z,9.00
2019-05-07T06:35:32.460Z,9.10
2019-05-07T06:38:02.864Z,9.10
2019-05-07T06:40:38.979Z,9.30
2019-05-07T06:43:09.018Z,9.50
2019-05-07T06:45:45.054Z,9.50
2019-05-07T06:48:13.459Z,9.70
2019-05-07T06:50:43.566Z,9.80
2019-05-07T06:53:12.173Z,10.00
2019-05-07T06:55:42.731Z,10.00
2019-05-07T06:58:12.272Z,10.00
2019-05-07T07:00:42.596Z,10.10
2019-05-07T07:03:12.811Z,10.20
2019-05-07T07:05:42.854Z,10.40
2019-05-07T07:08:24.939Z,10.50
2019-05-07T07:11:02.638Z,10.60
2019-05-07T07:13:32.152Z,10.70
2019-05-07T07:16:01.930Z,10.80
2019-05-07T07:18:32.304Z,10.80
2019-05-07T07:21:02.250Z,10.90
2019-05-07T07:23:32.439Z,11.10
2019-05-07T07:26:03.111Z,10.80
2019-05-07T07:28:32.647Z,10.90
2019-05-07T07:31:19.761Z,10.90
2019-05-07T07:33:52.695Z,10.90
2019-05-07T07:36:22.912Z,10.90
2019-05-07T07:38:52.747Z,11.20
2019-05-07T07:44:13.338Z,11.60
2019-05-07T07:46:42.496Z,11.50
2019-05-07T07:49:14.751Z,11.10
2019-05-07T07:51:45.086Z,11.10
2019-05-07T07:54:13.144Z,11.40
2019-05-07T07:56:55.734Z,11.40
2019-05-07T07:59:33.059Z,11.70
2019-05-07T08:02:03.126Z,11.90
2019-05-07T08:04:32.110Z,11.90
2019-05-07T08:07:03.435Z,11.90
2019-05-07T08:09:34.214Z,12.00
2019-05-07T08:12:03.594Z,12.10
2019-05-07T08:14:32.694Z,12.30
2019-05-07T08:17:02.891Z,12.10
2019-05-07T08:19:32.735Z,12.30
2019-05-07T08:22:02.769Z,12.50
2019-05-07T08:24:32.209Z,12.80
2019-05-07T08:27:02.434Z,12.80
2019-05-07T08:29:32.596Z,12.90
2019-05-07T08:32:12.658Z,13.10
2019-05-07T08:34:48.942Z,13.20
2019-05-07T08:37:17.444Z,13.30
2019-05-07T08:39:45.839Z,13.50
2019-05-07T08:42:14.266Z,13.70
2019-05-07T08:44:46.869Z,13.60
2019-05-07T08:47:22.918Z,13.40
2019-05-07T08:49:52.377Z,13.50
2019-05-07T08:52:22.389Z,13.60
2019-05-07T08:54:51.879Z,13.80
2019-05-07T08:57:22.587Z,14.00
2019-05-07T08:59:58.473Z,14.10
2019-05-07T09:02:22.263Z,14.00
2019-05-07T09:04:52.297Z,14.20
2019-05-07T09:07:21.844Z,14.10
2019-05-07T09:09:52.317Z,14.10
2019-05-07T09:12:22.751Z,14.20
2019-05-07T09:14:52.836Z,14.30
2019-05-07T09:17:22.878Z,14.30
2019-05-07T09:19:54.061Z,14.50
2019-05-07T09:22:22.974Z,14.50
2019-05-07T09:24:52.664Z,14.60
2019-05-07T09:27:32.800Z,14.70
2019-05-07T09:30:02.994Z,14.90
2019-05-07T09:32:33.035Z,15.10
2019-05-07T09:35:03.078Z,15.40
2019-05-07T09:37:32.727Z,15.20
2019-05-07T09:40:02.764Z,15.20
2019-05-07T09:42:33.217Z,15.30
2019-05-07T09:45:01.980Z,15.50
2019-05-07T09:47:32.551Z,15.50
2019-05-07T09:50:05.560Z,15.80
2019-05-07T09:52:32.136Z,16.10
2019-05-07T09:55:11.036Z,16.10
2019-05-07T09:57:32.457Z,16.20
2019-05-07T10:00:02.216Z,16.20
2019-05-07T10:02:32.056Z,16.10
2019-05-07T10:05:02.421Z,16.10
2019-05-07T10:07:32.489Z,16.30
2019-05-07T10:10:03.209Z,16.30
2019-05-07T10:12:44.985Z,16.20
2019-05-07T10:15:13.731Z,16.00
2019-05-07T10:17:46.526Z,16.40
2019-05-07T10:20:22.049Z,16.40
2019-05-07T10:22:46.943Z,16.50
2019-05-07T10:25:15.596Z,16.50
2019-05-07T10:27:44.126Z,16.60
2019-05-07T10:30:12.979Z,16.60
2019-05-07T10:32:42.495Z,16.60
2019-05-07T10:35:12.980Z,16.90
2019-05-07T10:37:42.251Z,17.10
2019-05-07T10:40:12.363Z,17.40
2019-05-07T10:42:42.950Z,17.60
2019-05-07T10:45:13.096Z,18.10
2019-05-07T10:47:46.022Z,18.50
2019-05-07T10:50:16.511Z,18.10
2019-05-07T10:52:44.909Z,17.70
2019-05-07T10:55:13.746Z,17.80
2019-05-07T10:57:42.381Z,17.80
2019-05-07T11:00:13.961Z,17.70
2019-05-07T11:02:42.686Z,17.50
2019-05-07T11:05:13.003Z,17.50
2019-05-07T11:07:42.185Z,17.60
2019-05-07T11:10:12.412Z,17.80
2019-05-07T11:12:42.439Z,18.00
2019-05-07T11:15:12.678Z,18.00
2019-05-07T11:17:48.761Z,17.90
2019-05-07T11:20:17.615Z,17.70
2019-05-07T11:22:46.076Z,17.60
2019-05-07T11:25:14.631Z,17.50
2019-05-07T11:27:43.023Z,17.30
2019-05-07T11:30:12.550Z,17.30
2019-05-07T11:32:42.878Z,17.60
2019-05-07T11:35:14.673Z,17.60
2019-05-07T11:37:44.269Z,17.60
2019-05-07T11:40:13.581Z,17.80
2019-05-07T11:42:58.360Z,17.30
2019-05-07T11:45:28.401Z,17.30
2019-05-07T11:47:56.799Z,17.40
2019-05-07T11:50:29.572Z,17.40
2019-05-07T11:52:59.665Z,17.10
2019-05-07T11:55:28.083Z,16.90
2019-05-07T11:57:56.486Z,16.60
2019-05-07T12:00:29.334Z,16.50
2019-05-07T12:02:57.731Z,16.70
2019-05-07T12:05:26.134Z,16.50
2019-05-07T12:07:54.543Z,16.60
2019-05-07T12:10:22.926Z,16.50
2019-05-07T12:12:52.107Z,16.90
2019-05-07T12:15:21.716Z,17.30
2019-05-07T12:17:52.158Z,17.70
2019-05-07T12:20:21.831Z,18.10
2019-05-07T12:22:52.150Z,18.20
2019-05-07T12:25:21.455Z,18.20
2019-05-07T12:27:52.109Z,18.10
2019-05-07T12:30:42.841Z,18.10
2019-05-07T12:33:25.081Z,18.10
2019-05-07T12:35:53.481Z,17.90
2019-05-07T12:38:22.042Z,17.90
2019-05-07T12:40:52.256Z,17.90
2019-05-07T12:43:20.634Z,17.50
2019-05-07T12:45:49.025Z,17.40
2019-05-07T12:48:17.436Z,17.50
2019-05-07T12:50:45.877Z,17.60
2019-05-07T12:53:15.924Z,17.50
2019-05-07T12:55:54.975Z,17.50
2019-05-07T12:58:23.391Z,17.60
2019-05-07T13:00:59.296Z,17.70
2019-05-07T13:03:29.347Z,17.90
2019-05-07T13:05:57.742Z,18.30
2019-05-07T13:08:26.142Z,18.70
2019-05-07T13:10:54.549Z,18.80
2019-05-07T13:13:23.035Z,19.10
2019-05-07T13:15:51.895Z,19.10
2019-05-07T13:18:22.514Z,19.30
2019-05-07T13:20:51.927Z,19.60
2019-05-07T13:23:22.481Z,19.90
2019-05-07T13:25:52.236Z,19.90
2019-05-07T13:28:20.921Z,20.20
2019-05-07T13:30:49.334Z,20.50
2019-05-07T13:33:18.494Z,20.70
2019-05-07T13:35:47.632Z,20.60
2019-05-07T13:38:21.354Z,20.30
2019-05-07T13:40:53.219Z,20.10
2019-05-07T13:43:32.381Z,20.00
2019-05-07T13:46:02.631Z,20.40
2019-05-07T13:48:31.731Z,20.40
2019-05-07T13:51:01.781Z,20.40
2019-05-07T13:53:32.137Z,20.30
2019-05-07T13:56:02.265Z,20.40
2019-05-07T13:58:32.751Z,20.50
2019-05-07T14:01:04.923Z,20.40
2019-05-07T14:03:33.074Z,20.60
2019-05-07T14:06:04.415Z,20.70
2019-05-07T14:08:33.735Z,20.80
2019-05-07T14:11:02.750Z,20.40
2019-05-07T14:13:31.299Z,20.50
2019-05-07T14:16:11.876Z,20.40
2019-05-07T14:18:39.836Z,20.60
2019-05-07T14:21:08.497Z,20.80
2019-05-07T14:23:37.271Z,20.60
2019-05-07T14:26:05.942Z,20.60
2019-05-07T14:28:34.411Z,20.70
2019-05-07T14:31:02.955Z,20.20
2019-05-07T14:33:53.913Z,20.30
2019-05-07T14:36:32.194Z,20.50
2019-05-07T14:39:02.347Z,20.70
2019-05-07T14:41:32.524Z,20.90
2019-05-07T14:44:02.797Z,20.30
2019-05-07T14:46:43.989Z,20.30
2019-05-07T14:49:02.757Z,20.50
2019-05-07T14:51:32.607Z,20.50
2019-05-07T14:54:01.786Z,20.20
2019-05-07T14:56:32.279Z,20.40
2019-05-07T14:59:02.316Z,20.20
2019-05-07T15:01:30.781Z,20.30
2019-05-07T15:03:59.234Z,20.20
2019-05-07T15:06:27.705Z,20.20
2019-05-07T15:08:56.341Z,20.00
2019-05-07T15:11:24.893Z,20.20
2019-05-07T15:13:53.282Z,20.30
2019-05-07T15:16:22.531Z,20.30
2019-05-07T15:18:53.122Z,20.30
2019-05-07T15:21:22.216Z,20.20
2019-05-07T15:23:52.872Z,20.30
2019-05-07T15:26:22.100Z,20.00
2019-05-07T15:28:52.266Z,19.60
2019-05-07T15:31:22.301Z,19.70
2019-05-07T15:33:52.276Z,19.60
2019-05-07T15:36:20.875Z,19.40
2019-05-07T15:38:49.286Z,19.50
2019-05-07T15:41:17.688Z,19.30
2019-05-07T15:43:46.350Z,19.20
2019-05-07T15:46:14.761Z,19.40
2019-05-07T15:48:43.158Z,19.60
2019-05-07T15:51:11.958Z,19.40
2019-05-07T15:53:52.108Z,19.70
2019-05-07T15:56:21.854Z,20.00
2019-05-07T15:58:51.762Z,20.10
2019-05-07T16:01:22.010Z,20.70
2019-05-07T16:03:54.342Z,21.20
2019-05-07T16:06:22.005Z,22.20
2019-05-07T16:08:54.628Z,22.90
2019-05-07T16:11:23.351Z,23.00
2019-05-07T16:14:05.202Z,22.70
2019-05-07T16:16:35.327Z,23.00
2019-05-07T16:19:15.306Z,23.40
2019-05-07T16:21:43.722Z,22.90
2019-05-07T16:24:12.274Z,22.30
2019-05-07T16:26:41.845Z,22.20
2019-05-07T16:29:12.981Z,22.20
2019-05-07T16:31:40.800Z,22.10
2019-05-07T16:34:09.188Z,22.40
2019-05-07T16:36:37.609Z,22.10
2019-05-07T16:39:07.542Z,21.60
2019-05-07T16:41:35.965Z,21.30
2019-05-07T16:44:04.883Z,21.00
2019-05-07T16:46:33.293Z,20.60
2019-05-07T16:49:02.289Z,20.60
2019-05-07T16:51:32.836Z,20.60
2019-05-07T16:54:03.211Z,20.70
2019-05-07T16:56:33.142Z,20.30
2019-05-07T16:59:07.610Z,20.50
2019-05-07T17:01:35.652Z,20.20
2019-05-07T17:04:04.907Z,20.00
2019-05-07T17:06:33.290Z,20.20
2019-05-07T17:09:09.255Z,20.00
2019-05-07T17:11:37.647Z,20.10
2019-05-07T17:14:06.049Z,20.10
2019-05-07T17:16:34.445Z,19.90
2019-05-07T17:19:02.853Z,20.00
2019-05-07T17:21:32.433Z,20.20
2019-05-07T17:24:02.540Z,20.30
2019-05-07T17:26:31.114Z,20.60
2019-05-07T17:28:59.527Z,21.00
2019-05-07T17:31:27.918Z,21.30
2019-05-07T17:33:56.327Z,21.30
2019-05-07T17:36:24.735Z,21.00
2019-05-07T17:38:53.143Z,20.80
2019-05-07T17:41:26.798Z,20.90
2019-05-07T17:43:52.068Z,21.20
2019-05-07T17:46:21.751Z,21.40
2019-05-07T17:48:52.223Z,21.20
2019-05-07T17:51:22.151Z,20.90
2019-05-07T17:53:59.639Z,20.70
2019-05-07T17:56:22.397Z,20.50
2019-05-07T17:58:52.231Z,20.20
2019-05-07T18:01:22.423Z,19.90
2019-05-07T18:03:52.010Z,19.60
2019-05-07T18:06:20.578Z,19.30
2019-05-07T18:08:49.012Z,18.80
2019-05-07T18:11:21.141Z,18.60
2019-05-07T18:13:47.607Z,18.20
2019-05-07T18:16:29.547Z,17.90
2019-05-07T18:18:58.019Z,17.60
2019-05-07T18:21:26.415Z,17.20
2019-05-07T18:23:54.828Z,16.50
2019-05-07T18:26:29.991Z,16.40
2019-05-07T18:28:53.419Z,16.10
2019-05-07T18:31:23.940Z,15.90
2019-05-07T18:33:53.994Z,15.70
2019-05-07T18:36:22.776Z,15.40
2019-05-07T18:38:52.853Z,15.20
2019-05-07T18:41:22.266Z,14.80
2019-05-07T18:43:54.395Z,14.70
2019-05-07T18:46:22.173Z,14.50
2019-05-07T18:48:51.869Z,14.20
2019-05-07T18:51:20.419Z,14.00
2019-05-07T18:53:48.817Z,13.70
2019-05-07T18:56:17.231Z,13.50
2019-05-07T18:58:45.636Z,13.20
2019-05-07T19:01:15.876Z,13.10
2019-05-07T19:03:44.565Z,13.00
2019-05-07T19:06:13.625Z,12.70
2019-05-07T19:08:42.383Z,12.50
2019-05-07T19:11:12.245Z,12.30
2019-05-07T19:13:42.047Z,12.10
2019-05-07T19:16:12.449Z,11.80
2019-05-07T19:18:42.971Z,11.50
2019-05-07T19:21:11.078Z,11.30
2019-05-07T19:23:39.511Z,11.10
2019-05-07T19:26:07.990Z,11.10
2019-05-07T19:28:36.461Z,11.10
2019-05-07T19:31:04.871Z,11.00
2019-05-07T19:33:33.273Z,10.90
2019-05-07T19:36:01.682Z,10.70
2019-05-07T19:38:32.184Z,10.50
2019-05-07T19:41:02.122Z,10.50
2019-05-07T19:43:32.376Z,10.40
2019-05-07T19:46:02.729Z,10.20
2019-05-07T19:48:32.314Z,10.10
2019-05-07T19:51:02.750Z,10.10
2019-05-07T19:53:32.750Z,10.10
2019-05-07T19:56:17.203Z,10.00
2019-05-07T19:58:45.657Z,10.10
2019-05-07T20:01:15.783Z,10.20
2019-05-07T20:03:44.178Z,10.30
2019-05-07T20:06:12.991Z,10.30
2019-05-07T20:08:43.704Z,10.30
2019-05-07T20:11:13.307Z,10.30
2019-05-07T20:13:43.787Z,10.20
2019-05-07T20:16:19.099Z,10.20
2019-05-07T20:18:47.777Z,10.20
2019-05-07T20:21:16.251Z,10.10
2019-05-07T20:23:44.663Z,10.10
2019-05-07T20:26:13.160Z,10.10
2019-05-07T20:28:41.843Z,10.10
2019-05-07T20:31:12.250Z,10.00
2019-05-07T20:33:42.220Z,10.00
2019-05-07T20:36:11.137Z,10.10
2019-05-07T20:38:39.594Z,10.10
2019-05-07T20:41:08.008Z,10.20
2019-05-07T20:43:36.393Z,10.30
2019-05-07T20:46:04.823Z,10.30
2019-05-07T20:48:33.203Z,10.30
2019-05-07T20:51:01.604Z,10.30
2019-05-07T20:53:48.209Z,10.40
2019-05-07T20:56:18.242Z,10.60
2019-05-07T20:58:46.658Z,10.70
2019-05-07T21:01:15.189Z,10.70
2019-05-07T21:03:43.603Z,10.80
2019-05-07T21:06:12.074Z,10.80
2019-05-07T21:08:42.637Z,10.80
2019-05-07T21:11:11.939Z,10.90
2019-05-07T21:13:44.085Z,11.00
2019-05-07T21:16:12.667Z,11.00
2019-05-07T21:18:42.141Z,10.90
2019-05-07T21:21:12.529Z,10.90
2019-05-07T21:23:43.192Z,11.00
2019-05-07T21:26:13.046Z,11.00
2019-05-07T21:28:43.253Z,11.00
2019-05-07T21:31:11.975Z,11.00
2019-05-07T21:33:42.713Z,11.00
2019-05-07T21:36:12.101Z,11.00
2019-05-07T21:38:42.603Z,11.00
2019-05-07T21:41:12.769Z,10.90
2019-05-07T21:43:45.621Z,10.90
2019-05-07T21:46:12.752Z,10.90
2019-05-07T21:48:41.478Z,10.90
2019-05-07T21:51:11.992Z,10.90
2019-05-07T21:53:42.955Z,10.80
2019-05-07T21:56:13.195Z,10.80
2019-05-07T21:58:46.095Z,10.80
2019-05-07T22:01:18.828Z,10.80
2019-05-07T22:03:48.881Z,10.80
2019-05-07T22:06:17.262Z,10.70
2019-05-07T22:08:45.661Z,10.70
2019-05-07T22:11:14.220Z,10.70
2019-05-07T22:13:43.522Z,10.70
2019-05-07T22:16:13.002Z,10.70
2019-05-07T22:18:42.766Z,10.70
2019-05-07T22:21:12.453Z,10.70
2019-05-07T22:23:42.877Z,10.70
2019-05-07T22:26:20.001Z,10.70
2019-05-07T22:28:42.132Z,10.60
2019-05-07T22:31:12.703Z,10.70
2019-05-07T22:33:59.413Z,10.50
2019-05-07T22:36:27.980Z,10.50
2019-05-07T22:38:56.481Z,10.50
2019-05-07T22:41:24.866Z,10.60
2019-05-07T22:43:53.273Z,10.60
2019-05-07T22:46:22.339Z,10.70
2019-05-07T22:48:50.885Z,10.60
2019-05-07T22:51:19.271Z,10.70
2019-05-07T22:53:47.686Z,10.70
2019-05-07T22:56:16.149Z,10.80
2019-05-07T22:58:49.267Z,10.80
2019-05-07T23:01:19.126Z,10.80
2019-05-07T23:03:47.531Z,10.80
2019-05-07T23:06:15.936Z,10.90
2019-05-07T23:08:44.347Z,10.80
2019-05-07T23:11:12.801Z,10.80
2019-05-07T23:13:42.663Z,10.80
2019-05-07T23:16:12.539Z,10.90
2019-05-07T23:18:42.954Z,11.00
2019-05-07T23:21:11.711Z,10.90
2019-05-07T23:23:42.211Z,10.90
2019-05-07T23:26:14.309Z,11.00
2019-05-07T23:28:41.865Z,10.90
2019-05-07T23:31:12.164Z,10.80
2019-05-07T23:33:40.745Z,10.90
2019-05-07T23:36:09.189Z,10.90
2019-05-07T23:38:37.601Z,10.90
2019-05-07T23:41:07.661Z,10.80
2019-05-07T23:43:36.066Z,10.80
2019-05-07T23:46:04.462Z,10.70
2019-05-07T23:48:32.867Z,10.70
2019-05-07T23:51:02.081Z,10.60
2019-05-07T23:53:30.832Z,10.60
2019-05-07T23:55:59.504Z,10.50
2019-05-07T23:58:27.919Z,10.40
